AirNav   Everest Fuels
 
 1004 users online  

0PS9 Jefferson Health Bucks County Campus Heliport
Fairless Hills, Pennsylvania, USA

GOING TO FAIRLESS HILLS?


FAA INFORMATION EFFECTIVE 18 JUNE 2020

Location

FAA Identifier: 0PS9
Lat/Long: 40-10-57.7800N 074-52-04.8300W
40-10.963000N 074-52.080500W
40.1827167,-74.8680083
(estimated)
Elevation: 141 ft. / 43 m (estimated)
Variation: 12W (1980)
Time zone: UTC -4 (UTC -5 during Standard Time)
Zip code: 19030

Heliport Operations

Heliport use: Private use, MEDICAL USE.
Activation date: 11/1986
Control tower: no
ARTCC: NEW YORK CENTER
FSS: WILLIAMSPORT FLIGHT SERVICE STATION
Attendance: CONTINUOUS
Wind indicator: yes
Segmented circle: no

Heliport Communications

WX ASOS at TTN (6 nm NE): 126.775 (609-538-8690)
WX ASOS at PNE (9 nm SW): 121.15 (215-677-0146)
WX ASOS at VAY (14 nm S): 119.325 (609-267-1176)
WX ASOS at DYL (15 nm NW): 118.875 (215-345-0392)
WX AWOS-3 at LOM (18 nm W): 118.925 (215-646-1068)

Nearby radio navigation aids

VOR radial/distance  VOR name  Freq  Var
ARDr167/4.6YARDLEY VOR/DME108.2010W
GXUr322/16.2MC GUIRE VORTAC110.6012W
RBVr276/17.1ROBBINSVILLE VORTAC113.8010W
SBJr204/24.7SOLBERG VOR/DME112.9010W
CYNr328/29.7COYLE VORTAC113.4010W
PTWr103/31.8POTTSTOWN VORTAC116.5009W
COLr268/33.3COLTS NECK VOR/DME115.4011W
BWZr194/37.0BROADWAY VOR/DME114.2011W
OODr041/38.4WOODSTOWN VORTAC112.8010W
VCNr017/39.0CEDAR LAKE VOR/DME115.2010W

 
NDB name  Hdg/Dist  Freq  Var  ID
AMBLER092/19.427512WING .. -. --.
LAKEHURST300/25.839611WNEL -. . .-..
CHATHAM224/39.025413WCAT -.-. .- -

Heliport Services

Runway Information

Helipad H1

Dimensions: 65 x 65 ft. / 20 x 20 m
Surface: asphalt
ASPH TLOF 40 FT DIAM.
Latitude: 40-10.963000N
Longitude: 074-52.080500W
Elevation: 141.0 ft.
Traffic pattern: leftleft

Heliport Ownership and Management from official FAA records

Ownership: Privately-owned
Owner: ARIA - JEFFERSON HEALTH
4900 FRANKFORD AVE
PHILADELPHIA, PA 19124
Phone 215-831-2594
Manager: DARRYL BEARD
380 NORTH OXFORD VALLEY RD
LANGHORNE, PA 19047
Phone 267-587-0837

Additional Remarks

FOR CD CTC PHILADELPHIA APCH AT 800-354-9884
(CONTACT TITLE) OTR CTC JOHN.ARDENTE@JEFFERSON.EDU

Instrument Procedures

There are no published instrument procedures at 0PS9.

Some nearby airports with instrument procedures:

KTTN - Trenton Mercer Airport (6 nm NE)
KPNE - Northeast Philadelphia Airport (9 nm SW)
N87 - Trenton-Robbinsville Airport (12 nm E)
KVAY - South Jersey Regional Airport (14 nm S)
KDYL - Doylestown Airport (15 nm NW)
N14 - Flying W Airport (15 nm S)
39N - Princeton Airport (16 nm NE)
KWRI - McGuire Field (Joint Base Mc Guire Dix Lakehurst) Airport (16 nm SE)
KLOM - Wings Field Airport (18 nm W)
 
Loc | Ops | Rwys | IFR | FBO | Links
Com | Nav | Svcs | Stats | Notes
Area around 0PS9 (Jefferson Health Bucks County Campus Heliport)
 
Road maps at: MapQuest Bing Google
 
Aerial photo
No photo
 
Sectional chart

 
Airport distance calculator
Flying to Jefferson Health Bucks County Campus Heliport? Find the distance to fly.

From to 0PS9

Sunrise and sunset
Times for 06-Jul-2020
 Local
(UTC-4)
 Zulu
(UTC)
Morning civil twilight05:0609:06
Sunrise05:3809:38
Sunset20:3100:31
Evening civil twilight21:0301:03

Current date and time
Zulu (UTC)  07-Jul-2020 00:11:06
Local (UTC-4)  06-Jul-2020 20:11:06
 
METAR
KTTN 
6nm N 
ASOS 133.70 609-538-8690
062353Z 22006KT 10SM CLR 22/18 A3005 RMK AO2 RAE13 SLP170 P0000 60000 T02170178 10256 20217 53003
KPNE 
9nm SW 
062354Z AUTO 10SM CLR 21/18 A3007 RMK AO2 SLP180 60121 T02110183 10233 20194 50006
KDYL 
15nm NW 
062354Z AUTO 00000KT 10SM -RA FEW065 SCT095 BKN120 21/19 A3007 RMK AO2 RAE09B37 SLP176 P0000 60093 T02110189 10300 20206 53015
KVAY 
15nm S 
ASOS 119.325 609-267-1176
062354Z AUTO VRB03KT 10SM CLR 21/18 A3005 RMK AO2 SLP174 60203 T02110183 10228 20189 53006
KWRI 
16nm SE 
062356Z AUTO 23011KT 10SM CLR 21/18 A3004 RMK AO2 SLP171 60009 T02090181 10277 20202 50007 $
KLOM 
18nm W 
062355Z AUTO 34005KT 10SM -RA SCT110 20/20 A3009 RMK AO2 P0004 T02050197 10224 20202 403400196 60152
TAF
KTTN 
6nm N 
062046Z 0621/0718 12012KT 6SM -SHRA SCT025 BKN100 TEMPO 0621/0623 4SM SHRA BKN025 OVC040 FM062300 13006KT P6SM BKN040 BKN150 FM070200 VRB03KT P6SM SCT080 FM070700 VRB02KT 4SM BR SCT012 FM071300 18005KT P6SM SCT200
KPNE 
9nm SW 
062034Z 0621/0718 21010KT 6SM -SHRA VCTS SCT020CB BKN090 TEMPO 0621/0623 4SM -SHRA BR BKN025 OVC040 FM062300 VRB04KT P6SM VCSH BKN040 BKN100 FM070200 VRB02KT P6SM SCT100 FM070700 VRB02KT 4SM BR SCT010
KWRI 
16nm SE 
061951Z 0619/0724 18009KT 9999 BKN045 QNH3001INS TEMPO 0619/0624 9000 -TSRA BKN040CB OVC100 BECMG 0700/0701 VRB06KT 9999 NSW BKN030 QNH3003INS BECMG 0709/0710 09004KT 9000 BR SCT009 BKN020 QNH3005INS BECMG 0713/0714 16007KT 9999 NSW BKN030 QNH3001INS TEMPO 0718/0722 9000 -TSRA SCT015CB BKN050 TX31/0718Z TN21/0709Z
NOTAMs
Click for the latest NOTAMs
NOTAMs are issued by the DoD/FAA and will open in a separate window not controlled by AirNav.

 

 
 

Would you like to see your business listed on this page?

 If your business provides an interesting product or service to pilots, flight crews, aircraft, or users of the Jefferson Health Bucks County Campus Heliport, you should consider listing it here.  To start the listing process, click on the button below
 
Add a business
 

Other Pages about Jefferson Health Bucks County Campus Heliport

Update a link
 
Copyright © AirNav, LLC. All rights reserved. Privacy Policy  Contact